sensor_id;sensor_type;location;lat;lon;timestamp;P1;durP1;ratioP1;P2;durP2;ratioP2
1400;SDS011;46518;48.842;8.926;2023-02-28T00:01:36;4.13;;;2.78;;
1400;SDS011;46518;48.842;8.926;2023-02-28T00:04:05;3.33;;;2.95;;
1400;SDS011;46518;48.842;8.926;2023-02-28T00:06:35;4.85;;;3.05;;
1400;SDS011;46518;48.842;8.926;2023-02-28T00:09:04;4.15;;;3.45;;
1400;SDS011;46518;48.842;8.926;2023-02-28T00:11:33;3.75;;;2.95;;
1400;SDS011;46518;48.842;8.926;2023-02-28T00:14:02;3.63;;;3.25;;
1400;SDS011;46518;48.842;8.926;2023-02-28T00:16:30;3.75;;;2.95;;
1400;SDS011;46518;48.842;8.926;2023-02-28T00:18:58;2.90;;;2.70;;
1400;SDS011;46518;48.842;8.926;2023-02-28T00:21:27;3.92;;;3.45;;
1400;SDS011;46518;48.842;8.926;2023-02-28T00:23:55;3.75;;;3.35;;
1400;SDS011;46518;48.842;8.926;2023-02-28T00:26:24;5.82;;;3.05;;
1400;SDS011;46518;48.842;8.926;2023-02-28T00:28:53;3.90;;;3.60;;
1400;SDS011;46518;48.842;8.926;2023-02-28T00:31:23;4.18;;;3.05;;
1400;SDS011;46518;48.842;8.926;2023-02-28T00:33:51;3.10;;;2.65;;
1400;SDS011;46518;48.842;8.926;2023-02-28T00:36:20;3.50;;;2.92;;
1400;SDS011;46518;48.842;8.926;2023-02-28T00:38:48;4.22;;;2.80;;
1400;SDS011;46518;48.842;8.926;2023-02-28T00:41:16;4.00;;;3.60;;
1400;SDS011;46518;48.842;8.926;2023-02-28T00:43:46;5.47;;;3.20;;
1400;SDS011;46518;48.842;8.926;2023-02-28T00:46:14;4.40;;;3.45;;
1400;SDS011;46518;48.842;8.926;2023-02-28T00:48:43;4.13;;;3.63;;
1400;SDS011;46518;48.842;8.926;2023-02-28T00:51:11;4.28;;;3.50;;
1400;SDS011;46518;48.842;8.926;2023-02-28T00:53:39;3.95;;;3.55;;
1400;SDS011;46518;48.842;8.926;2023-02-28T00:56:07;4.45;;;3.50;;
1400;SDS011;46518;48.842;8.926;2023-02-28T00:58:35;3.38;;;3.03;;
1400;SDS011;46518;48.842;8.926;2023-02-28T01:01:03;4.70;;;3.63;;
1400;SDS011;46518;48.842;8.926;2023-02-28T01:03:32;4.20;;;3.70;;
1400;SDS011;46518;48.842;8.926;2023-02-28T01:06:02;6.13;;;3.88;;
1400;SDS011;46518;48.842;8.926;2023-02-28T01:08:30;4.25;;;3.90;;
1400;SDS011;46518;48.842;8.926;2023-02-28T01:11:06;4.82;;;4.43;;
1400;SDS011;46518;48.842;8.926;2023-02-28T01:13:35;5.05;;;3.95;;
1400;SDS011;46518;48.842;8.926;2023-02-28T01:16:04;4.05;;;3.75;;
1400;SDS011;46518;48.842;8.926;2023-02-28T01:18:34;6.05;;;4.68;;
1400;SDS011;46518;48.842;8.926;2023-02-28T01:21:04;3.97;;;3.55;;
1400;SDS011;46518;48.842;8.926;2023-02-28T01:23:33;3.83;;;3.53;;
1400;SDS011;46518;48.842;8.926;2023-02-28T01:26:03;6.28;;;4.47;;
1400;SDS011;46518;48.842;8.926;2023-02-28T01:28:33;4.95;;;4.45;;
1400;SDS011;46518;48.842;8.926;2023-02-28T01:31:02;4.40;;;4.00;;
1400;SDS011;46518;48.842;8.926;2023-02-28T01:33:31;5.22;;;4.38;;
1400;SDS011;46518;48.842;8.926;2023-02-28T01:35:59;5.95;;;4.20;;
1400;SDS011;46518;48.842;8.926;2023-02-28T01:38:29;4.80;;;4.20;;
1400;SDS011;46518;48.842;8.926;2023-02-28T01:40:57;4.50;;;4.10;;
1400;SDS011;46518;48.842;8.926;2023-02-28T01:43:26;6.10;;;4.15;;
1400;SDS011;46518;48.842;8.926;2023-02-28T01:45:56;5.65;;;4.22;;
1400;SDS011;46518;48.842;8.926;2023-02-28T01:48:26;5.78;;;4.22;;
1400;SDS011;46518;48.842;8.926;2023-02-28T01:50:56;4.35;;;3.90;;
1400;SDS011;46518;48.842;8.926;2023-02-28T01:53:31;6.80;;;4.30;;
1400;SDS011;46518;48.842;8.926;2023-02-28T01:56:02;6.45;;;4.03;;
1400;SDS011;46518;48.842;8.926;2023-02-28T01:58:33;4.47;;;4.07;;
1400;SDS011;46518;48.842;8.926;2023-02-28T02:01:03;4.95;;;4.40;;
1400;SDS011;46518;48.842;8.926;2023-02-28T02:03:32;5.13;;;4.20;;
1400;SDS011;46518;48.842;8.926;2023-02-28T02:06:03;4.85;;;4.28;;
1400;SDS011;46518;48.842;8.926;2023-02-28T02:08:33;3.65;;;3.30;;
1400;SDS011;46518;48.842;8.926;2023-02-28T02:11:01;4.95;;;4.45;;
1400;SDS011;46518;48.842;8.926;2023-02-28T02:13:38;6.07;;;4.75;;
1400;SDS011;46518;48.842;8.926;2023-02-28T02:16:23;5.15;;;4.75;;
1400;SDS011;46518;48.842;8.926;2023-02-28T02:19:04;4.85;;;4.43;;
1400;SDS011;46518;48.842;8.926;2023-02-28T02:21:53;6.80;;;4.60;;
1400;SDS011;46518;48.842;8.926;2023-02-28T02:27:57;5.82;;;4.63;;
1400;SDS011;46518;48.842;8.926;2023-02-28T02:30:48;4.88;;;4.45;;
1400;SDS011;46518;48.842;8.926;2023-02-28T02:36:39;6.25;;;4.65;;
1400;SDS011;46518;48.842;8.926;2023-02-28T02:39:18;5.97;;;4.75;;
1400;SDS011;46518;48.842;8.926;2023-02-28T02:41:52;6.50;;;4.93;;
1400;SDS011;46518;48.842;8.926;2023-02-28T02:44:23;7.65;;;5.20;;
1400;SDS011;46518;48.842;8.926;2023-02-28T02:46:58;8.18;;;5.63;;
1400;SDS011;46518;48.842;8.926;2023-02-28T02:49:31;5.60;;;5.03;;
1400;SDS011;46518;48.842;8.926;2023-02-28T02:52:03;5.60;;;4.97;;
1400;SDS011;46518;48.842;8.926;2023-02-28T02:54:36;4.80;;;4.10;;
1400;SDS011;46518;48.842;8.926;2023-02-28T02:57:08;7.20;;;5.07;;
1400;SDS011;46518;48.842;8.926;2023-02-28T02:59:41;7.25;;;4.50;;
1400;SDS011;46518;48.842;8.926;2023-02-28T03:02:11;5.43;;;4.75;;
1400;SDS011;46518;48.842;8.926;2023-02-28T03:04:42;5.13;;;4.63;;
1400;SDS011;46518;48.842;8.926;2023-02-28T03:07:15;4.97;;;4.47;;
1400;SDS011;46518;48.842;8.926;2023-02-28T03:09:49;7.30;;;5.13;;
1400;SDS011;46518;48.842;8.926;2023-02-28T03:12:18;5.32;;;4.60;;
1400;SDS011;46518;48.842;8.926;2023-02-28T03:14:51;5.78;;;5.18;;
1400;SDS011;46518;48.842;8.926;2023-02-28T03:17:31;6.82;;;5.03;;
1400;SDS011;46518;48.842;8.926;2023-02-28T03:20:13;6.10;;;5.35;;
1400;SDS011;46518;48.842;8.926;2023-02-28T03:22:53;5.55;;;5.05;;
1400;SDS011;46518;48.842;8.926;2023-02-28T03:25:30;6.63;;;4.40;;
1400;SDS011;46518;48.842;8.926;2023-02-28T03:28:05;7.95;;;5.65;;
1400;SDS011;46518;48.842;8.926;2023-02-28T03:30:45;5.68;;;4.90;;
1400;SDS011;46518;48.842;8.926;2023-02-28T03:33:21;5.20;;;4.70;;
1400;SDS011;46518;48.842;8.926;2023-02-28T03:35:55;5.47;;;4.40;;
1400;SDS011;46518;48.842;8.926;2023-02-28T03:38:29;6.90;;;5.78;;
1400;SDS011;46518;48.842;8.926;2023-02-28T03:41:02;7.00;;;5.50;;
1400;SDS011;46518;48.842;8.926;2023-02-28T03:43:38;6.00;;;5.40;;
1400;SDS011;46518;48.842;8.926;2023-02-28T03:46:09;6.20;;;5.05;;
1400;SDS011;46518;48.842;8.926;2023-02-28T03:48:41;7.10;;;5.70;;
1400;SDS011;46518;48.842;8.926;2023-02-28T03:51:13;7.82;;;6.00;;
1400;SDS011;46518;48.842;8.926;2023-02-28T03:53:47;7.72;;;5.75;;
1400;SDS011;46518;48.842;8.926;2023-02-28T03:56:19;6.65;;;5.63;;
1400;SDS011;46518;48.842;8.926;2023-02-28T03:58:51;5.88;;;5.28;;
1400;SDS011;46518;48.842;8.926;2023-02-28T04:01:25;7.15;;;5.97;;
1400;SDS011;46518;48.842;8.926;2023-02-28T04:03:58;7.93;;;5.60;;
1400;SDS011;46518;48.842;8.926;2023-02-28T04:06:27;6.10;;;5.50;;
1400;SDS011;46518;48.842;8.926;2023-02-28T04:09:00;6.13;;;5.53;;
1400;SDS011;46518;48.842;8.926;2023-02-28T04:11:30;7.15;;;6.00;;
1400;SDS011;46518;48.842;8.926;2023-02-28T04:14:01;6.88;;;5.53;;
1400;SDS011;46518;48.842;8.926;2023-02-28T04:16:29;7.80;;;5.90;;
1400;SDS011;46518;48.842;8.926;2023-02-28T04:19:02;8.07;;;5.20;;
1400;SDS011;46518;48.842;8.926;2023-02-28T04:21:32;6.20;;;5.57;;
1400;SDS011;46518;48.842;8.926;2023-02-28T04:24:04;5.68;;;5.15;;
1400;SDS011;46518;48.842;8.926;2023-02-28T04:26:33;7.78;;;5.95;;
1400;SDS011;46518;48.842;8.926;2023-02-28T04:29:03;7.38;;;6.00;;
1400;SDS011;46518;48.842;8.926;2023-02-28T04:31:32;6.32;;;5.70;;
1400;SDS011;46518;48.842;8.926;2023-02-28T04:34:00;7.60;;;5.75;;
1400;SDS011;46518;48.842;8.926;2023-02-28T04:36:29;8.80;;;6.45;;
1400;SDS011;46518;48.842;8.926;2023-02-28T04:38:57;7.63;;;5.65;;
1400;SDS011;46518;48.842;8.926;2023-02-28T04:41:26;8.75;;;5.90;;
1400;SDS011;46518;48.842;8.926;2023-02-28T04:44:02;6.70;;;5.85;;
1400;SDS011;46518;48.842;8.926;2023-02-28T04:46:30;7.70;;;5.65;;
1400;SDS011;46518;48.842;8.926;2023-02-28T04:48:59;7.40;;;5.97;;
1400;SDS011;46518;48.842;8.926;2023-02-28T04:51:27;8.77;;;6.10;;
1400;SDS011;46518;48.842;8.926;2023-02-28T04:53:57;7.32;;;6.53;;
1400;SDS011;46518;48.842;8.926;2023-02-28T04:56:26;6.70;;;6.05;;
1400;SDS011;46518;48.842;8.926;2023-02-28T04:58:55;6.05;;;5.50;;
1400;SDS011;46518;48.842;8.926;2023-02-28T05:01:25;6.32;;;5.70;;
1400;SDS011;46518;48.842;8.926;2023-02-28T05:03:56;8.50;;;7.28;;
1400;SDS011;46518;48.842;8.926;2023-02-28T05:06:28;5.93;;;5.10;;
1400;SDS011;46518;48.842;8.926;2023-02-28T05:09:01;8.48;;;5.88;;
1400;SDS011;46518;48.842;8.926;2023-02-28T05:11:32;7.07;;;6.15;;
1400;SDS011;46518;48.842;8.926;2023-02-28T05:14:03;8.52;;;6.38;;
1400;SDS011;46518;48.842;8.926;2023-02-28T05:16:32;6.78;;;6.07;;
1400;SDS011;46518;48.842;8.926;2023-02-28T05:19:01;6.10;;;5.45;;
1400;SDS011;46518;48.842;8.926;2023-02-28T05:21:31;6.85;;;5.82;;
1400;SDS011;46518;48.842;8.926;2023-02-28T05:24:01;8.13;;;6.55;;
1400;SDS011;46518;48.842;8.926;2023-02-28T05:26:33;8.25;;;6.63;;
1400;SDS011;46518;48.842;8.926;2023-02-28T05:29:02;9.60;;;7.85;;
1400;SDS011;46518;48.842;8.926;2023-02-28T05:31:31;9.63;;;7.88;;
1400;SDS011;46518;48.842;8.926;2023-02-28T05:34:00;9.63;;;6.80;;
1400;SDS011;46518;48.842;8.926;2023-02-28T05:36:30;8.57;;;7.75;;
1400;SDS011;46518;48.842;8.926;2023-02-28T05:38:59;12.32;;;6.20;;
1400;SDS011;46518;48.842;8.926;2023-02-28T05:41:30;7.03;;;6.00;;
1400;SDS011;46518;48.842;8.926;2023-02-28T05:43:59;7.88;;;6.40;;
1400;SDS011;46518;48.842;8.926;2023-02-28T05:46:28;9.07;;;7.05;;
1400;SDS011;46518;48.842;8.926;2023-02-28T05:48:56;9.88;;;8.10;;
1400;SDS011;46518;48.842;8.926;2023-02-28T05:51:27;9.30;;;6.95;;
1400;SDS011;46518;48.842;8.926;2023-02-28T05:53:58;8.25;;;6.30;;
1400;SDS011;46518;48.842;8.926;2023-02-28T05:56:27;7.97;;;7.22;;
1400;SDS011;46518;48.842;8.926;2023-02-28T05:58:56;10.02;;;6.60;;
1400;SDS011;46518;48.842;8.926;2023-02-28T06:01:30;10.52;;;6.85;;
1400;SDS011;46518;48.842;8.926;2023-02-28T06:04:01;8.70;;;6.80;;
1400;SDS011;46518;48.842;8.926;2023-02-28T06:06:31;10.13;;;6.60;;
1400;SDS011;46518;48.842;8.926;2023-02-28T06:09:03;8.77;;;6.68;;
1400;SDS011;46518;48.842;8.926;2023-02-28T06:11:32;9.23;;;7.05;;
1400;SDS011;46518;48.842;8.926;2023-02-28T06:14:01;12.77;;;7.20;;
1400;SDS011;46518;48.842;8.926;2023-02-28T06:16:32;11.70;;;7.40;;
1400;SDS011;46518;48.842;8.926;2023-02-28T06:19:04;7.60;;;6.57;;
1400;SDS011;46518;48.842;8.926;2023-02-28T06:21:33;10.80;;;9.05;;
1400;SDS011;46518;48.842;8.926;2023-02-28T06:24:01;12.88;;;8.45;;
1400;SDS011;46518;48.842;8.926;2023-02-28T06:26:30;8.10;;;6.50;;
1400;SDS011;46518;48.842;8.926;2023-02-28T06:28:59;10.20;;;8.40;;
1400;SDS011;46518;48.842;8.926;2023-02-28T06:31:32;9.60;;;7.45;;
1400;SDS011;46518;48.842;8.926;2023-02-28T06:34:01;9.57;;;7.13;;
1400;SDS011;46518;48.842;8.926;2023-02-28T06:36:29;10.70;;;7.90;;
1400;SDS011;46518;48.842;8.926;2023-02-28T06:38:59;8.65;;;7.35;;
1400;SDS011;46518;48.842;8.926;2023-02-28T06:41:27;11.07;;;7.70;;
1400;SDS011;46518;48.842;8.926;2023-02-28T06:44:10;9.23;;;7.50;;
1400;SDS011;46518;48.842;8.926;2023-02-28T06:46:41;9.60;;;6.93;;
1400;SDS011;46518;48.842;8.926;2023-02-28T06:49:10;9.93;;;6.90;;
1400;SDS011;46518;48.842;8.926;2023-02-28T06:51:39;8.73;;;7.80;;
1400;SDS011;46518;48.842;8.926;2023-02-28T06:54:12;13.63;;;7.30;;
1400;SDS011;46518;48.842;8.926;2023-02-28T06:56:40;14.98;;;8.23;;
1400;SDS011;46518;48.842;8.926;2023-02-28T06:59:09;10.57;;;7.10;;
1400;SDS011;46518;48.842;8.926;2023-02-28T07:01:37;12.20;;;7.13;;
1400;SDS011;46518;48.842;8.926;2023-02-28T07:04:07;10.65;;;6.93;;
1400;SDS011;46518;48.842;8.926;2023-02-28T07:06:36;11.93;;;7.25;;
1400;SDS011;46518;48.842;8.926;2023-02-28T07:09:04;11.77;;;7.82;;
1400;SDS011;46518;48.842;8.926;2023-02-28T07:11:33;8.25;;;7.03;;
1400;SDS011;46518;48.842;8.926;2023-02-28T07:14:02;10.40;;;7.22;;
1400;SDS011;46518;48.842;8.926;2023-02-28T07:16:30;9.70;;;6.20;;
1400;SDS011;46518;48.842;8.926;2023-02-28T07:18:58;9.13;;;7.90;;
1400;SDS011;46518;48.842;8.926;2023-02-28T07:21:28;9.30;;;6.97;;
1400;SDS011;46518;48.842;8.926;2023-02-28T07:23:57;11.30;;;7.40;;
1400;SDS011;46518;48.842;8.926;2023-02-28T07:26:25;10.20;;;7.20;;
1400;SDS011;46518;48.842;8.926;2023-02-28T07:28:54;8.93;;;7.30;;
1400;SDS011;46518;48.842;8.926;2023-02-28T07:31:22;9.27;;;7.43;;
1400;SDS011;46518;48.842;8.926;2023-02-28T07:33:50;9.48;;;7.10;;
1400;SDS011;46518;48.842;8.926;2023-02-28T07:36:20;8.35;;;7.40;;
1400;SDS011;46518;48.842;8.926;2023-02-28T07:38:49;9.52;;;7.40;;
1400;SDS011;46518;48.842;8.926;2023-02-28T07:41:18;9.15;;;7.20;;
1400;SDS011;46518;48.842;8.926;2023-02-28T07:43:48;10.57;;;8.50;;
1400;SDS011;46518;48.842;8.926;2023-02-28T07:46:17;10.15;;;9.13;;
1400;SDS011;46518;48.842;8.926;2023-02-28T07:48:47;13.57;;;9.23;;
1400;SDS011;46518;48.842;8.926;2023-02-28T07:51:16;10.27;;;7.32;;
1400;SDS011;46518;48.842;8.926;2023-02-28T07:53:44;11.65;;;7.95;;
1400;SDS011;46518;48.842;8.926;2023-02-28T07:56:14;12.20;;;8.95;;
1400;SDS011;46518;48.842;8.926;2023-02-28T07:58:42;10.18;;;7.68;;
1400;SDS011;46518;48.842;8.926;2023-02-28T08:01:10;9.20;;;8.20;;
1400;SDS011;46518;48.842;8.926;2023-02-28T08:03:39;10.23;;;7.80;;
1400;SDS011;46518;48.842;8.926;2023-02-28T08:06:14;12.95;;;9.55;;
1400;SDS011;46518;48.842;8.926;2023-02-28T08:08:44;10.40;;;7.07;;
1400;SDS011;46518;48.842;8.926;2023-02-28T08:11:14;9.75;;;7.57;;
1400;SDS011;46518;48.842;8.926;2023-02-28T08:13:42;11.75;;;8.30;;
1400;SDS011;46518;48.842;8.926;2023-02-28T08:16:12;9.27;;;7.30;;
1400;SDS011;46518;48.842;8.926;2023-02-28T08:18:44;9.60;;;8.23;;
1400;SDS011;46518;48.842;8.926;2023-02-28T08:21:12;11.63;;;7.72;;
1400;SDS011;46518;48.842;8.926;2023-02-28T08:23:41;11.70;;;9.57;;
1400;SDS011;46518;48.842;8.926;2023-02-28T08:26:09;10.55;;;7.75;;
1400;SDS011;46518;48.842;8.926;2023-02-28T08:28:39;12.63;;;9.75;;
1400;SDS011;46518;48.842;8.926;2023-02-28T08:31:08;10.35;;;8.15;;
1400;SDS011;46518;48.842;8.926;2023-02-28T08:33:37;14.90;;;9.57;;
1400;SDS011;46518;48.842;8.926;2023-02-28T08:36:07;14.55;;;8.40;;
1400;SDS011;46518;48.842;8.926;2023-02-28T08:38:36;11.40;;;9.25;;
1400;SDS011;46518;48.842;8.926;2023-02-28T08:41:06;9.13;;;7.90;;
1400;SDS011;46518;48.842;8.926;2023-02-28T08:43:35;15.77;;;8.82;;
1400;SDS011;46518;48.842;8.926;2023-02-28T08:46:06;10.10;;;8.15;;
1400;SDS011;46518;48.842;8.926;2023-02-28T08:48:35;12.43;;;8.85;;
1400;SDS011;46518;48.842;8.926;2023-02-28T08:51:05;13.13;;;9.18;;
1400;SDS011;46518;48.842;8.926;2023-02-28T08:53:36;12.38;;;8.90;;
1400;SDS011;46518;48.842;8.926;2023-02-28T08:56:06;11.82;;;9.05;;
1400;SDS011;46518;48.842;8.926;2023-02-28T08:58:35;12.85;;;9.68;;
1400;SDS011;46518;48.842;8.926;2023-02-28T09:01:11;12.10;;;8.50;;
1400;SDS011;46518;48.842;8.926;2023-02-28T09:03:40;9.98;;;8.63;;
1400;SDS011;46518;48.842;8.926;2023-02-28T09:06:11;10.57;;;8.60;;
1400;SDS011;46518;48.842;8.926;2023-02-28T09:08:40;10.90;;;8.57;;
1400;SDS011;46518;48.842;8.926;2023-02-28T09:11:09;14.13;;;9.60;;
1400;SDS011;46518;48.842;8.926;2023-02-28T09:13:38;12.02;;;9.98;;
1400;SDS011;46518;48.842;8.926;2023-02-28T09:16:10;17.73;;;11.00;;
1400;SDS011;46518;48.842;8.926;2023-02-28T09:18:41;13.88;;;9.70;;
1400;SDS011;46518;48.842;8.926;2023-02-28T09:21:11;12.07;;;8.85;;
1400;SDS011;46518;48.842;8.926;2023-02-28T09:23:41;12.73;;;9.18;;
1400;SDS011;46518;48.842;8.926;2023-02-28T09:26:13;13.15;;;9.68;;
1400;SDS011;46518;48.842;8.926;2023-02-28T09:28:42;13.80;;;9.70;;
1400;SDS011;46518;48.842;8.926;2023-02-28T09:31:13;12.30;;;9.68;;
1400;SDS011;46518;48.842;8.926;2023-02-28T09:33:43;10.98;;;9.25;;
1400;SDS011;46518;48.842;8.926;2023-02-28T09:36:11;13.10;;;9.63;;
1400;SDS011;46518;48.842;8.926;2023-02-28T09:38:39;14.75;;;10.65;;
1400;SDS011;46518;48.842;8.926;2023-02-28T09:41:11;15.50;;;9.95;;
1400;SDS011;46518;48.842;8.926;2023-02-28T09:43:43;12.88;;;10.23;;
1400;SDS011;46518;48.842;8.926;2023-02-28T09:46:18;12.77;;;10.10;;
1400;SDS011;46518;48.842;8.926;2023-02-28T09:48:55;11.73;;;9.82;;
1400;SDS011;46518;48.842;8.926;2023-02-28T09:51:30;13.90;;;10.27;;
1400;SDS011;46518;48.842;8.926;2023-02-28T09:54:04;11.27;;;8.85;;
1400;SDS011;46518;48.842;8.926;2023-02-28T09:56:37;13.85;;;10.20;;
1400;SDS011;46518;48.842;8.926;2023-02-28T09:59:10;13.55;;;11.43;;
1400;SDS011;46518;48.842;8.926;2023-02-28T10:01:48;13.40;;;10.38;;
1400;SDS011;46518;48.842;8.926;2023-02-28T10:04:33;13.48;;;9.82;;
1400;SDS011;46518;48.842;8.926;2023-02-28T10:07:12;13.10;;;10.40;;
1400;SDS011;46518;48.842;8.926;2023-02-28T10:09:50;13.57;;;10.35;;
1400;SDS011;46518;48.842;8.926;2023-02-28T10:12:22;12.02;;;9.90;;
1400;SDS011;46518;48.842;8.926;2023-02-28T10:14:53;12.23;;;9.50;;
1400;SDS011;46518;48.842;8.926;2023-02-28T10:17:27;15.45;;;10.50;;
1400;SDS011;46518;48.842;8.926;2023-02-28T10:20:21;14.02;;;10.02;;
1400;SDS011;46518;48.842;8.926;2023-02-28T10:22:57;11.10;;;9.13;;
1400;SDS011;46518;48.842;8.926;2023-02-28T10:25:34;11.25;;;9.48;;
1400;SDS011;46518;48.842;8.926;2023-02-28T10:28:10;16.38;;;10.15;;
1400;SDS011;46518;48.842;8.926;2023-02-28T10:30:41;13.85;;;9.52;;
1400;SDS011;46518;48.842;8.926;2023-02-28T10:33:17;14.25;;;10.52;;
1400;SDS011;46518;48.842;8.926;2023-02-28T10:35:48;14.23;;;10.50;;
1400;SDS011;46518;48.842;8.926;2023-02-28T10:38:18;16.85;;;10.65;;
1400;SDS011;46518;48.842;8.926;2023-02-28T10:40:48;14.20;;;10.35;;
1400;SDS011;46518;48.842;8.926;2023-02-28T10:43:21;13.43;;;10.45;;
1400;SDS011;46518;48.842;8.926;2023-02-28T10:45:53;16.52;;;11.05;;
1400;SDS011;46518;48.842;8.926;2023-02-28T10:48:29;13.82;;;10.27;;
1400;SDS011;46518;48.842;8.926;2023-02-28T10:51:00;13.65;;;10.85;;
1400;SDS011;46518;48.842;8.926;2023-02-28T10:53:36;13.38;;;10.73;;
1400;SDS011;46518;48.842;8.926;2023-02-28T10:56:26;14.50;;;9.43;;
1400;SDS011;46518;48.842;8.926;2023-02-28T10:58:56;10.82;;;9.73;;
1400;SDS011;46518;48.842;8.926;2023-02-28T11:01:34;13.68;;;11.35;;
1400;SDS011;46518;48.842;8.926;2023-02-28T11:04:17;15.35;;;11.43;;
1400;SDS011;46518;48.842;8.926;2023-02-28T11:06:51;17.58;;;11.43;;
1400;SDS011;46518;48.842;8.926;2023-02-28T11:09:27;14.40;;;10.30;;
1400;SDS011;46518;48.842;8.926;2023-02-28T11:11:58;14.48;;;10.95;;
1400;SDS011;46518;48.842;8.926;2023-02-28T11:14:28;17.10;;;10.75;;
1400;SDS011;46518;48.842;8.926;2023-02-28T11:16:59;16.38;;;11.15;;
1400;SDS011;46518;48.842;8.926;2023-02-28T11:19:44;15.77;;;10.85;;
1400;SDS011;46518;48.842;8.926;2023-02-28T11:22:17;14.93;;;11.60;;
1400;SDS011;46518;48.842;8.926;2023-02-28T11:24:48;13.20;;;10.85;;
1400;SDS011;46518;48.842;8.926;2023-02-28T11:27:26;12.43;;;9.95;;
1400;SDS011;46518;48.842;8.926;2023-02-28T11:30:22;13.25;;;10.80;;
1400;SDS011;46518;48.842;8.926;2023-02-28T11:37:47;14.23;;;11.40;;
1400;SDS011;46518;48.842;8.926;2023-02-28T11:40:16;13.40;;;11.98;;
1400;SDS011;46518;48.842;8.926;2023-02-28T11:42:57;11.20;;;9.82;;
1400;SDS011;46518;48.842;8.926;2023-02-28T11:45:40;13.93;;;10.85;;
1400;SDS011;46518;48.842;8.926;2023-02-28T11:48:16;12.10;;;10.10;;
1400;SDS011;46518;48.842;8.926;2023-02-28T11:50:53;17.63;;;11.15;;
1400;SDS011;46518;48.842;8.926;2023-02-28T11:56:44;12.88;;;11.05;;
1400;SDS011;46518;48.842;8.926;2023-02-28T11:59:22;12.98;;;9.70;;
1400;SDS011;46518;48.842;8.926;2023-02-28T12:02:18;17.10;;;10.57;;
1400;SDS011;46518;48.842;8.926;2023-02-28T12:04:54;15.73;;;12.25;;
1400;SDS011;46518;48.842;8.926;2023-02-28T12:07:38;14.40;;;11.85;;
1400;SDS011;46518;48.842;8.926;2023-02-28T12:10:20;13.05;;;11.57;;
1400;SDS011;46518;48.842;8.926;2023-02-28T12:12:58;10.95;;;9.80;;
1400;SDS011;46518;48.842;8.926;2023-02-28T12:18:45;13.57;;;12.18;;
1400;SDS011;46518;48.842;8.926;2023-02-28T12:21:23;12.45;;;10.57;;
1400;SDS011;46518;48.842;8.926;2023-02-28T12:24:01;14.85;;;11.02;;
1400;SDS011;46518;48.842;8.926;2023-02-28T12:26:41;13.68;;;10.30;;
1400;SDS011;46518;48.842;8.926;2023-02-28T12:29:13;13.20;;;11.02;;
1400;SDS011;46518;48.842;8.926;2023-02-28T12:31:46;13.18;;;10.50;;
1400;SDS011;46518;48.842;8.926;2023-02-28T12:34:18;14.02;;;11.52;;
1400;SDS011;46518;48.842;8.926;2023-02-28T12:36:50;13.02;;;11.43;;
1400;SDS011;46518;48.842;8.926;2023-02-28T12:39:23;11.95;;;10.23;;
1400;SDS011;46518;48.842;8.926;2023-02-28T12:41:59;12.65;;;10.93;;
1400;SDS011;46518;48.842;8.926;2023-02-28T12:44:30;15.00;;;12.07;;
1400;SDS011;46518;48.842;8.926;2023-02-28T12:47:03;12.95;;;10.02;;
1400;SDS011;46518;48.842;8.926;2023-02-28T12:49:34;12.60;;;11.35;;
1400;SDS011;46518;48.842;8.926;2023-02-28T12:52:07;16.23;;;11.20;;
1400;SDS011;46518;48.842;8.926;2023-02-28T12:54:42;10.68;;;8.95;;
1400;SDS011;46518;48.842;8.926;2023-02-28T12:57:17;12.02;;;10.60;;
1400;SDS011;46518;48.842;8.926;2023-02-28T12:59:54;13.52;;;10.98;;
1400;SDS011;46518;48.842;8.926;2023-02-28T13:05:39;14.32;;;11.52;;
1400;SDS011;46518;48.842;8.926;2023-02-28T13:08:28;15.32;;;10.50;;
1400;SDS011;46518;48.842;8.926;2023-02-28T13:11:28;13.02;;;11.07;;
1400;SDS011;46518;48.842;8.926;2023-02-28T13:14:01;12.10;;;9.93;;
1400;SDS011;46518;48.842;8.926;2023-02-28T13:16:48;13.40;;;11.07;;
1400;SDS011;46518;48.842;8.926;2023-02-28T13:19:21;14.10;;;10.45;;
1400;SDS011;46518;48.842;8.926;2023-02-28T13:21:51;15.48;;;9.75;;
1400;SDS011;46518;48.842;8.926;2023-02-28T13:33:25;14.13;;;11.15;;
1400;SDS011;46518;48.842;8.926;2023-02-28T13:36:22;12.45;;;10.50;;
1400;SDS011;46518;48.842;8.926;2023-02-28T13:38:53;13.20;;;10.90;;
1400;SDS011;46518;48.842;8.926;2023-02-28T13:41:46;12.70;;;11.40;;
1400;SDS011;46518;48.842;8.926;2023-02-28T13:44:16;12.43;;;10.68;;
1400;SDS011;46518;48.842;8.926;2023-02-28T13:49:52;14.07;;;10.82;;
1400;SDS011;46518;48.842;8.926;2023-02-28T13:52:22;11.02;;;9.75;;
1400;SDS011;46518;48.842;8.926;2023-02-28T13:55:06;11.05;;;9.95;;
1400;SDS011;46518;48.842;8.926;2023-02-28T13:57:52;11.10;;;9.93;;
1400;SDS011;46518;48.842;8.926;2023-02-28T14:00:31;10.70;;;9.68;;
1400;SDS011;46518;48.842;8.926;2023-02-28T14:03:15;10.75;;;9.65;;
1400;SDS011;46518;48.842;8.926;2023-02-28T14:06:18;12.32;;;10.13;;
1400;SDS011;46518;48.842;8.926;2023-02-28T14:08:54;13.50;;;11.18;;
1400;SDS011;46518;48.842;8.926;2023-02-28T14:11:27;16.10;;;11.43;;
1400;SDS011;46518;48.842;8.926;2023-02-28T14:13:57;12.75;;;11.27;;
1400;SDS011;46518;48.842;8.926;2023-02-28T14:16:35;16.45;;;12.20;;
1400;SDS011;46518;48.842;8.926;2023-02-28T14:19:10;15.10;;;11.10;;
1400;SDS011;46518;48.842;8.926;2023-02-28T14:21:46;14.35;;;10.25;;
1400;SDS011;46518;48.842;8.926;2023-02-28T14:24:39;12.32;;;10.75;;
1400;SDS011;46518;48.842;8.926;2023-02-28T14:30:29;14.90;;;10.23;;
1400;SDS011;46518;48.842;8.926;2023-02-28T14:33:21;11.45;;;10.00;;
1400;SDS011;46518;48.842;8.926;2023-02-28T14:35:56;12.88;;;9.70;;
1400;SDS011;46518;48.842;8.926;2023-02-28T14:38:42;13.68;;;9.75;;
1400;SDS011;46518;48.842;8.926;2023-02-28T14:41:17;11.73;;;10.02;;
1400;SDS011;46518;48.842;8.926;2023-02-28T14:43:52;14.63;;;11.57;;
1400;SDS011;46518;48.842;8.926;2023-02-28T14:46:22;12.50;;;10.68;;
1400;SDS011;46518;48.842;8.926;2023-02-28T14:48:53;13.95;;;11.40;;
1400;SDS011;46518;48.842;8.926;2023-02-28T14:51:22;13.95;;;10.68;;
1400;SDS011;46518;48.842;8.926;2023-02-28T14:53:57;11.88;;;10.68;;
1400;SDS011;46518;48.842;8.926;2023-02-28T14:56:30;12.30;;;10.52;;
1400;SDS011;46518;48.842;8.926;2023-02-28T14:59:04;13.52;;;11.95;;
1400;SDS011;46518;48.842;8.926;2023-02-28T15:01:51;13.82;;;11.30;;
1400;SDS011;46518;48.842;8.926;2023-02-28T15:04:21;12.68;;;10.80;;
1400;SDS011;46518;48.842;8.926;2023-02-28T15:07:09;14.68;;;10.88;;
1400;SDS011;46518;48.842;8.926;2023-02-28T15:09:39;13.15;;;11.75;;
1400;SDS011;46518;48.842;8.926;2023-02-28T15:12:07;17.63;;;11.25;;
1400;SDS011;46518;48.842;8.926;2023-02-28T15:14:42;13.18;;;10.57;;
1400;SDS011;46518;48.842;8.926;2023-02-28T15:17:14;14.48;;;10.63;;
1400;SDS011;46518;48.842;8.926;2023-02-28T15:19:50;11.73;;;10.20;;
1400;SDS011;46518;48.842;8.926;2023-02-28T15:22:23;13.50;;;9.95;;
1400;SDS011;46518;48.842;8.926;2023-02-28T15:25:00;12.15;;;9.75;;
1400;SDS011;46518;48.842;8.926;2023-02-28T15:27:30;15.00;;;11.63;;
1400;SDS011;46518;48.842;8.926;2023-02-28T15:30:05;17.17;;;11.65;;
1400;SDS011;46518;48.842;8.926;2023-02-28T15:32:36;17.27;;;13.20;;
1400;SDS011;46518;48.842;8.926;2023-02-28T15:35:20;16.55;;;13.30;;
1400;SDS011;46518;48.842;8.926;2023-02-28T15:37:55;12.00;;;10.68;;
1400;SDS011;46518;48.842;8.926;2023-02-28T15:40:27;14.68;;;11.65;;
1400;SDS011;46518;48.842;8.926;2023-02-28T15:42:58;13.32;;;10.95;;
1400;SDS011;46518;48.842;8.926;2023-02-28T15:45:29;14.20;;;11.93;;
1400;SDS011;46518;48.842;8.926;2023-02-28T15:48:04;14.10;;;12.60;;
1400;SDS011;46518;48.842;8.926;2023-02-28T15:50:40;14.63;;;10.35;;
1400;SDS011;46518;48.842;8.926;2023-02-28T15:53:12;14.60;;;11.50;;
1400;SDS011;46518;48.842;8.926;2023-02-28T15:55:44;16.33;;;12.60;;
1400;SDS011;46518;48.842;8.926;2023-02-28T15:58:12;12.38;;;10.50;;
1400;SDS011;46518;48.842;8.926;2023-02-28T16:00:43;18.42;;;13.60;;